Terminal Aerodrome Forecast
Issued by NWS Tampa Bay Area, FL

Home | Current Version | Previous Version | Text Only | Print | Product List | Glossary Off
Versions: 1 2 3 4 5 6 7 8 9 10 11 12 13 14 15 16 17 18 19 20 21 22 23 24 25

000
FTUS42 KTBW 241900 AAA
TAFSRQ
TAF AMD
KSRQ 241915Z 2419/2518 19013KT P6SM FEW008 SCT020
     FM242000 19013G20KT P6SM SCT020 SCT250
     FM250000 18005KT P6SM SCT010 BKN250
     FM250200 17005KT 4SM BR BKN010
     FM251500 16004KT 5SM BR VCTS OVC015CB=

USA.gov is the U.S. government's official web portal to all federal, state and local government web resources and services.